createdAt,value
2024-05-09T00:00:52.265Z,102607.97
2024-05-09T00:03:22.675Z,102606.88
2024-05-09T00:05:53.083Z,102561.41
2024-05-09T00:08:26.203Z,102616.00
2024-05-09T00:10:58.440Z,102572.09
2024-05-09T00:13:28.962Z,102609.00
2024-05-09T00:15:59.539Z,102585.81
2024-05-09T00:18:29.843Z,102523.41
2024-05-09T00:21:00.307Z,102575.06
2024-05-09T00:23:33.407Z,102600.84
2024-05-09T00:26:03.908Z,102536.28
2024-05-09T00:28:34.252Z,102554.56
2024-05-09T00:31:05.782Z,102581.59
2024-05-09T00:33:36.175Z,102515.84
2024-05-09T00:36:07.050Z,102562.97
2024-05-09T00:38:40.022Z,102606.63
2024-05-09T00:41:10.311Z,102589.69
2024-05-09T00:43:40.846Z,102611.84
2024-05-09T00:46:12.992Z,102604.84
2024-05-09T00:48:43.585Z,102532.41
2024-05-09T00:51:14.373Z,102574.78
2024-05-09T00:53:47.681Z,102573.03
2024-05-09T00:56:21.121Z,102575.13
2024-05-09T00:58:52.290Z,102587.66
2024-05-09T01:01:24.048Z,102588.00
2024-05-09T01:03:54.838Z,102526.38
2024-05-09T01:06:25.303Z,102538.22
2024-05-09T01:08:58.294Z,102550.22
2024-05-09T01:11:36.476Z,102588.78
2024-05-09T01:14:07.254Z,102572.03
2024-05-09T01:16:37.875Z,102576.97
2024-05-09T01:19:13.842Z,102593.16
2024-05-09T01:21:47.430Z,102565.28
2024-05-09T01:24:20.361Z,102546.16
2024-05-09T01:26:50.790Z,102573.34
2024-05-09T01:29:21.322Z,102539.25
2024-05-09T01:31:52.395Z,102526.03
2024-05-09T01:34:22.995Z,102559.88
2024-05-09T01:36:53.279Z,102518.47
2024-05-09T01:39:26.449Z,102528.47
2024-05-09T01:41:56.860Z,102532.44
2024-05-09T01:44:27.380Z,102579.69
2024-05-09T01:46:58.461Z,102481.84
2024-05-09T01:49:28.840Z,102587.53
2024-05-09T01:51:59.396Z,102595.25
2024-05-09T01:54:32.350Z,102603.00
2024-05-09T01:57:02.644Z,102553.31
2024-05-09T01:59:33.235Z,102581.53
2024-05-09T02:02:03.834Z,102601.78
2024-05-09T02:04:34.705Z,102607.91
2024-05-09T02:07:05.170Z,102516.91
2024-05-09T02:09:38.151Z,102581.28
2024-05-09T02:12:09.014Z,102594.94
2024-05-09T02:14:39.682Z,102594.84
2024-05-09T02:17:10.442Z,102573.78
2024-05-09T02:19:41.027Z,102568.75
2024-05-09T02:22:11.418Z,102531.44
2024-05-09T02:24:44.462Z,102543.28
2024-05-09T02:27:14.743Z,102533.00
2024-05-09T02:29:47.479Z,102580.94
2024-05-09T02:32:17.901Z,102539.78
2024-05-09T02:34:48.386Z,102565.03
2024-05-09T02:37:18.822Z,102499.41
2024-05-09T02:39:49.211Z,102569.31
2024-05-09T02:42:19.603Z,102505.56
2024-05-09T02:44:47.393Z,102559.97
2024-05-09T02:47:18.100Z,102581.94
2024-05-09T02:49:45.930Z,102526.28
2024-05-09T02:52:19.653Z,102555.16
2024-05-09T02:54:49.994Z,102531.22
2024-05-09T02:57:20.284Z,102518.28
2024-05-09T02:59:48.219Z,102553.81
2024-05-09T03:02:18.758Z,102564.09
2024-05-09T03:04:46.799Z,102543.28
2024-05-09T03:07:19.743Z,102504.91
2024-05-09T03:09:50.661Z,102524.94
2024-05-09T03:12:21.064Z,102566.97
2024-05-09T03:14:50.617Z,102568.81
2024-05-09T03:17:23.615Z,102535.22
2024-05-09T03:19:51.511Z,102563.94
2024-05-09T03:22:21.920Z,102496.38
2024-05-09T03:24:52.347Z,102556.66
2024-05-09T03:27:24.863Z,102541.19
2024-05-09T03:29:52.698Z,102578.91
2024-05-09T03:32:23.005Z,102570.78
2024-05-09T03:34:50.772Z,102491.91
2024-05-09T03:37:20.996Z,102550.53
2024-05-09T03:39:57.886Z,102560.97
2024-05-09T03:42:30.959Z,102486.38
2024-05-09T03:45:01.234Z,102501.25
2024-05-09T03:47:29.287Z,102563.84
2024-05-09T03:49:59.812Z,102481.69
2024-05-09T03:52:27.587Z,102505.91
2024-05-09T03:55:00.672Z,102537.59
2024-05-09T03:57:31.286Z,102538.94
2024-05-09T04:00:02.796Z,102537.63
2024-05-09T04:02:32.244Z,102495.28
2024-05-09T04:05:02.579Z,102535.53
2024-05-09T04:07:30.355Z,102534.88
2024-05-09T04:10:08.922Z,102561.75
2024-05-09T04:12:36.904Z,102549.28
2024-05-09T04:15:11.238Z,102485.66
2024-05-09T04:17:41.026Z,102541.75
2024-05-09T04:20:24.133Z,102535.22
2024-05-09T04:23:04.903Z,102483.91
2024-05-09T04:25:35.398Z,102517.44
2024-05-09T04:28:06.069Z,102558.75
2024-05-09T04:30:38.520Z,102559.69
2024-05-09T04:33:13.523Z,102519.47
2024-05-09T04:35:43.548Z,102559.19
2024-05-09T04:38:17.981Z,102558.88
2024-05-09T04:40:51.156Z,102542.47
2024-05-09T04:43:21.787Z,102549.31
2024-05-09T04:45:50.788Z,102547.94
2024-05-09T04:48:21.271Z,102513.34
2024-05-09T04:50:51.801Z,102506.25
2024-05-09T04:53:22.185Z,102543.34
2024-05-09T04:55:52.649Z,102530.28
2024-05-09T04:58:22.999Z,102519.41
2024-05-09T05:00:51.944Z,102524.88
2024-05-09T05:03:23.067Z,102507.34
2024-05-09T05:05:50.978Z,102487.53
2024-05-09T05:08:24.707Z,102493.78
2024-05-09T05:10:56.362Z,102477.72
2024-05-09T05:13:26.843Z,102450.47
2024-05-09T05:15:57.509Z,102489.22
2024-05-09T05:18:29.763Z,102477.59
2024-05-09T05:20:57.985Z,102423.34
2024-05-09T05:23:28.868Z,102497.88
2024-05-09T05:26:00.947Z,102456.97
2024-05-09T05:28:32.248Z,102455.66
2024-05-09T05:31:00.260Z,102461.56
2024-05-09T05:33:30.645Z,102497.13
2024-05-09T05:36:04.269Z,102487.91
2024-05-09T05:38:37.946Z,102492.28
2024-05-09T05:41:13.512Z,102438.59
2024-05-09T05:43:44.164Z,102452.78
2024-05-09T05:46:12.996Z,102440.38
2024-05-09T05:48:43.340Z,102402.59
2024-05-09T05:51:12.450Z,102408.28
2024-05-09T05:53:43.280Z,102465.09
2024-05-09T05:56:13.718Z,102466.34
2024-05-09T05:58:44.696Z,102459.63
2024-05-09T06:01:13.056Z,102396.59
2024-05-09T06:03:43.563Z,102389.94
2024-05-09T06:06:14.494Z,102337.78
2024-05-09T06:08:47.546Z,102418.72
2024-05-09T06:11:19.785Z,102358.84
2024-05-09T06:13:52.659Z,102376.50
2024-05-09T06:16:20.736Z,102413.00
2024-05-09T06:18:51.556Z,102350.75
2024-05-09T06:21:19.620Z,102369.44
2024-05-09T06:23:50.380Z,102410.97
2024-05-09T06:26:20.728Z,102402.47
2024-05-09T06:28:50.901Z,102404.69
2024-05-09T06:31:18.594Z,102397.59
2024-05-09T06:33:49.056Z,102396.34
2024-05-09T06:36:16.830Z,102381.91
2024-05-09T06:38:47.131Z,102410.72
2024-05-09T06:41:14.942Z,102360.06
2024-05-09T06:43:47.852Z,102404.09
2024-05-09T06:46:15.519Z,102365.00
2024-05-09T06:48:48.233Z,102401.47
2024-05-09T06:51:16.072Z,102395.66
2024-05-09T06:53:46.286Z,102370.69
2024-05-09T06:56:14.643Z,102381.00
2024-05-09T06:58:47.510Z,102341.34
2024-05-09T07:01:15.285Z,102359.41
2024-05-09T07:03:45.688Z,102361.19
2024-05-09T07:06:13.537Z,102316.06
2024-05-09T07:08:44.007Z,102341.88
2024-05-09T07:11:12.002Z,102327.13
2024-05-09T07:13:43.500Z,102311.09
2024-05-09T07:16:13.789Z,102323.16
2024-05-09T07:18:44.300Z,102357.28
2024-05-09T07:21:12.895Z,102285.53
2024-05-09T07:23:45.422Z,102359.19
2024-05-09T07:26:14.639Z,102298.38
2024-05-09T07:28:45.399Z,102316.25
2024-05-09T07:31:17.894Z,102348.34
2024-05-09T07:33:48.823Z,102331.06
2024-05-09T07:36:20.531Z,102299.84
2024-05-09T07:38:53.142Z,102306.19
2024-05-09T07:41:20.986Z,102355.75
2024-05-09T07:43:53.215Z,102312.81
2024-05-09T07:47:36.818Z,102337.66
2024-05-09T07:53:20.425Z,102284.72
2024-05-09T07:54:40.240Z,102314.44
2024-05-09T07:57:11.208Z,102326.19
2024-05-09T07:59:42.608Z,102293.81
2024-05-09T08:02:12.934Z,102330.06
2024-05-09T08:04:43.520Z,102350.31
2024-05-09T08:07:11.445Z,102337.03
2024-05-09T08:09:41.911Z,102345.56
2024-05-09T08:12:09.896Z,102358.66
2024-05-09T08:14:41.920Z,102311.34
2024-05-09T08:17:10.860Z,102330.13
2024-05-09T08:19:43.931Z,102319.78
2024-05-09T08:22:14.681Z,102353.03
2024-05-09T08:24:42.830Z,102350.56
2024-05-09T08:27:13.061Z,102337.13
2024-05-09T08:29:40.791Z,102294.53
2024-05-09T08:32:14.736Z,102308.53
2024-05-09T08:34:49.510Z,102320.31
2024-05-09T08:37:22.373Z,102331.59
2024-05-09T08:39:55.222Z,102319.50
2024-05-09T08:42:24.047Z,102289.50
2024-05-09T08:44:55.467Z,102298.31
2024-05-09T08:47:23.212Z,102293.69
2024-05-09T08:49:58.792Z,102271.59
2024-05-09T08:52:26.818Z,102327.41
2024-05-09T08:54:57.451Z,102316.22
2024-05-09T08:57:26.659Z,102295.00
2024-05-09T08:59:59.024Z,102253.78
2024-05-09T09:02:27.306Z,102292.09
2024-05-09T09:05:05.009Z,102295.53
2024-05-09T09:07:33.716Z,102253.56
2024-05-09T09:10:08.564Z,102267.16
2024-05-09T09:12:36.895Z,102253.03
2024-05-09T09:15:07.523Z,102242.25
2024-05-09T09:17:36.490Z,102243.34
2024-05-09T09:20:14.417Z,102270.13
2024-05-09T09:22:46.729Z,102238.50
2024-05-09T09:25:20.196Z,102248.81
2024-05-09T09:27:48.138Z,102271.56
2024-05-09T09:30:31.671Z,102294.63
2024-05-09T09:33:05.090Z,102264.91
2024-05-09T09:35:38.922Z,102261.75
2024-05-09T09:38:08.699Z,102239.00
2024-05-09T09:40:44.808Z,102225.91
2024-05-09T09:43:19.892Z,102262.19
2024-05-09T09:45:58.673Z,102270.53
2024-05-09T09:48:30.021Z,102261.69
2024-05-09T09:51:03.414Z,102247.81
2024-05-09T09:53:32.392Z,102246.16
2024-05-09T09:56:03.689Z,102275.81
2024-05-09T09:58:33.349Z,102228.38
2024-05-09T10:01:03.742Z,102268.81
2024-05-09T10:03:31.975Z,102263.72
2024-05-09T10:06:05.267Z,102252.66
2024-05-09T10:08:33.121Z,102247.13
2024-05-09T10:11:07.134Z,102234.34
2024-05-09T10:13:35.351Z,102242.47
2024-05-09T10:16:12.369Z,102210.16
2024-05-09T10:18:41.682Z,102276.09
2024-05-09T10:21:21.664Z,102260.19
2024-05-09T10:23:59.842Z,102269.34
2024-05-09T10:26:34.939Z,102255.84
2024-05-09T10:29:11.670Z,102223.59
2024-05-09T10:31:44.336Z,102214.88
2024-05-09T10:34:17.866Z,102249.44
2024-05-09T10:36:55.377Z,102201.69
2024-05-09T10:39:24.957Z,102229.44
2024-05-09T10:41:55.411Z,102200.44
2024-05-09T10:44:23.122Z,102224.38
2024-05-09T10:46:54.912Z,102195.44
2024-05-09T10:49:25.871Z,102211.00
2024-05-09T10:51:58.989Z,102199.03
2024-05-09T10:54:35.970Z,102181.53
2024-05-09T10:57:06.394Z,102203.66
2024-05-09T10:59:34.801Z,102162.56
2024-05-09T11:02:07.904Z,102199.03
2024-05-09T11:04:37.018Z,102180.50
2024-05-09T11:07:11.967Z,102168.03
2024-05-09T11:09:40.345Z,102152.75
2024-05-09T11:12:11.252Z,102112.34
2024-05-09T11:14:39.093Z,102188.22
2024-05-09T11:17:10.878Z,102131.47
2024-05-09T11:19:40.184Z,102189.53
2024-05-09T11:22:13.515Z,102170.16
2024-05-09T11:24:41.625Z,102124.06
2024-05-09T11:27:11.962Z,102124.16
2024-05-09T11:29:41.302Z,102133.50
2024-05-09T11:32:13.901Z,102114.78
2024-05-09T11:34:42.313Z,102084.09
2024-05-09T11:37:15.282Z,102103.56
2024-05-09T11:39:48.438Z,102143.63
2024-05-09T11:42:20.869Z,102079.13
2024-05-09T11:44:48.470Z,102141.38
2024-05-09T11:47:18.748Z,102141.94
2024-05-09T11:49:46.414Z,102131.78
2024-05-09T11:52:19.701Z,102160.06
2024-05-09T11:54:47.358Z,102163.00
2024-05-09T11:57:17.732Z,102134.09
2024-05-09T11:59:45.416Z,102117.06
2024-05-09T12:02:15.611Z,102158.63
2024-05-09T12:04:43.336Z,102138.34
2024-05-09T12:07:13.760Z,102148.38
2024-05-09T12:09:44.058Z,102121.34
2024-05-09T12:12:15.046Z,102138.03
2024-05-09T12:14:43.329Z,102110.13
2024-05-09T12:17:13.499Z,102104.56
2024-05-09T12:19:41.182Z,102109.84
2024-05-09T12:22:11.476Z,102127.94
2024-05-09T12:24:39.250Z,102137.41
2024-05-09T12:27:12.272Z,102131.88
2024-05-09T12:29:39.995Z,102132.31
2024-05-09T12:32:10.579Z,102146.38
2024-05-09T12:34:38.321Z,102146.56
2024-05-09T12:37:08.534Z,102153.44
2024-05-09T12:39:36.072Z,102157.66
2024-05-09T12:42:06.515Z,102138.06
2024-05-09T12:44:36.658Z,102163.91
2024-05-09T12:47:07.058Z,102157.44
2024-05-09T12:49:35.013Z,102109.94
2024-05-09T12:52:05.226Z,102114.72
2024-05-09T12:54:33.750Z,102127.00
2024-05-09T12:57:03.934Z,102122.28
2024-05-09T12:59:31.402Z,102128.09
2024-05-09T13:02:04.231Z,102134.22
2024-05-09T13:04:32.081Z,102123.66
2024-05-09T13:07:04.302Z,102103.41
2024-05-09T13:09:33.485Z,102092.19
2024-05-09T13:12:03.587Z,102070.78
2024-05-09T13:14:31.133Z,102082.50
2024-05-09T13:17:03.807Z,102080.06
2024-05-09T13:19:31.614Z,102071.91
2024-05-09T13:22:01.756Z,102080.63
2024-05-09T13:24:29.303Z,102121.13
2024-05-09T13:26:59.378Z,102125.63
2024-05-09T13:29:27.286Z,102133.44
2024-05-09T13:31:57.328Z,102142.09
2024-05-09T13:34:30.240Z,102147.63
2024-05-09T13:36:58.003Z,102147.34
2024-05-09T13:39:28.166Z,102150.84
2024-05-09T13:41:55.738Z,102138.88
2024-05-09T13:44:25.758Z,102146.81
2024-05-09T13:46:53.555Z,102135.69
2024-05-09T13:49:23.853Z,102132.44
2024-05-09T13:51:54.185Z,102121.31
2024-05-09T13:54:24.308Z,102124.34
2024-05-09T13:56:52.381Z,102121.53
2024-05-09T13:59:22.602Z,102135.88
2024-05-09T14:01:50.259Z,102132.56
2024-05-09T14:04:20.665Z,102114.13
2024-05-09T14:06:48.767Z,102098.28
2024-05-09T14:09:21.407Z,102077.53
2024-05-09T14:11:49.031Z,102070.97
2024-05-09T14:14:19.326Z,102092.41
2024-05-09T14:16:47.168Z,102095.19
2024-05-09T14:19:17.687Z,102095.78
2024-05-09T14:21:45.359Z,102076.69
2024-05-09T14:24:16.174Z,102063.22
2024-05-09T14:26:46.434Z,102055.84
2024-05-09T14:29:16.637Z,102075.59
2024-05-09T14:31:44.325Z,102085.84
2024-05-09T14:34:14.873Z,102088.28
2024-05-09T14:36:42.715Z,102088.44
2024-05-09T14:39:12.854Z,102094.63
2024-05-09T14:41:40.941Z,102085.34
2024-05-09T14:44:14.269Z,102082.44
2024-05-09T14:46:41.987Z,102062.03
2024-05-09T14:49:12.548Z,102076.00
2024-05-09T14:51:41.041Z,102064.13
2024-05-09T14:54:11.285Z,102071.53
2024-05-09T14:56:38.877Z,102074.66
2024-05-09T14:59:09.368Z,102076.72
2024-05-09T15:01:39.816Z,102081.09
2024-05-09T15:04:10.172Z,102060.84
2024-05-09T15:06:39.974Z,102059.38
2024-05-09T15:09:10.324Z,102032.50
2024-05-09T15:11:37.931Z,102049.66
2024-05-09T15:14:08.934Z,102028.09
2024-05-09T15:16:39.187Z,102036.34
2024-05-09T15:19:09.559Z,102059.75
2024-05-09T15:21:37.372Z,102039.78
2024-05-09T15:24:08.315Z,102054.16
2024-05-09T15:26:36.496Z,102059.22
2024-05-09T15:29:06.660Z,102059.97
2024-05-09T15:31:34.436Z,102064.19
2024-05-09T15:34:08.434Z,102044.41
2024-05-09T15:36:36.128Z,102065.06
2024-05-09T15:39:06.310Z,102056.06
2024-05-09T15:41:33.986Z,102048.28
2024-05-09T15:44:04.110Z,102049.34
2024-05-09T15:46:31.724Z,102029.91
2024-05-09T15:49:02.075Z,102051.84
2024-05-09T15:51:32.371Z,102047.56
2024-05-09T15:54:02.488Z,102057.44
2024-05-09T15:56:30.191Z,102041.31
2024-05-09T15:59:00.681Z,102041.13
2024-05-09T16:01:28.939Z,102042.06
2024-05-09T16:03:59.242Z,102039.06
2024-05-09T16:06:27.135Z,102048.63
2024-05-09T16:08:59.957Z,102042.78
2024-05-09T16:11:27.698Z,102035.09
2024-05-09T16:13:58.013Z,102031.66
2024-05-09T16:16:25.715Z,102057.72
2024-05-09T16:18:55.868Z,102043.94
2024-05-09T16:21:23.445Z,102050.94
2024-05-09T16:23:53.517Z,102053.41
2024-05-09T16:26:23.594Z,102037.59
2024-05-09T16:28:53.943Z,102044.72
2024-05-09T16:31:21.603Z,102004.44
2024-05-09T16:33:51.871Z,102047.84
2024-05-09T16:36:19.810Z,102034.69
2024-05-09T16:38:49.897Z,102004.09
2024-05-09T16:41:17.516Z,102024.06
2024-05-09T16:43:50.196Z,102042.50
2024-05-09T16:46:17.871Z,102043.84
2024-05-09T16:48:48.396Z,102043.66
2024-05-09T16:51:16.019Z,102021.56
2024-05-09T16:53:46.059Z,102044.00
2024-05-09T16:56:13.894Z,102037.91
2024-05-09T16:58:43.986Z,102045.25
2024-05-09T17:01:15.082Z,102027.69
2024-05-09T17:03:45.693Z,102036.59
2024-05-09T17:06:13.554Z,102041.81
2024-05-09T17:08:43.935Z,102043.94
2024-05-09T17:11:12.382Z,102053.41
2024-05-09T17:13:45.247Z,102043.19
2024-05-09T17:16:19.175Z,102048.19
2024-05-09T17:18:50.578Z,102043.78
2024-05-09T17:21:18.778Z,102052.66
2024-05-09T17:23:51.208Z,102066.53
2024-05-09T17:26:18.862Z,102065.94
2024-05-09T17:28:49.140Z,102059.50
2024-05-09T17:31:19.300Z,102055.97
2024-05-09T17:33:49.727Z,102066.00
2024-05-09T17:36:17.647Z,102037.66
2024-05-09T17:38:47.932Z,102074.78
2024-05-09T17:41:15.718Z,102068.81
2024-05-09T17:43:47.044Z,102053.59
2024-05-09T17:46:14.719Z,102062.06
2024-05-09T17:48:47.490Z,102049.75
2024-05-09T17:51:15.171Z,102055.88
2024-05-09T17:53:45.278Z,102070.06
2024-05-09T17:56:12.865Z,102077.41
2024-05-09T17:58:43.114Z,102074.38
2024-05-09T18:01:10.806Z,102079.66
2024-05-09T18:03:42.025Z,102071.72
2024-05-09T18:06:12.343Z,102091.00
2024-05-09T18:08:42.578Z,102067.19
2024-05-09T18:11:10.390Z,102087.78
2024-05-09T18:13:40.703Z,102079.25
2024-05-09T18:16:08.831Z,102073.06
2024-05-09T18:18:39.222Z,102081.97
2024-05-09T18:21:06.959Z,102088.56
2024-05-09T18:23:40.040Z,102098.06
2024-05-09T18:26:08.774Z,102098.16
2024-05-09T18:28:39.047Z,102100.06
2024-05-09T18:31:09.818Z,102097.34
2024-05-09T18:33:40.281Z,102103.38
2024-05-09T18:36:08.151Z,102095.94
2024-05-09T18:38:42.081Z,102106.16
2024-05-09T18:41:09.809Z,102077.41
2024-05-09T18:43:45.055Z,102088.06
2024-05-09T18:46:16.167Z,102103.59
2024-05-09T18:48:46.581Z,102108.03
2024-05-09T18:51:14.803Z,102093.13
2024-05-09T18:53:47.515Z,102110.94
2024-05-09T18:56:15.263Z,102111.19
2024-05-09T18:58:45.557Z,102118.63
2024-05-09T19:01:13.516Z,102117.69
2024-05-09T19:03:44.060Z,102104.69
2024-05-09T19:06:11.774Z,102109.47
2024-05-09T19:08:42.009Z,102118.66
2024-05-09T19:11:12.309Z,102107.34
2024-05-09T19:13:42.576Z,102113.44
2024-05-09T19:16:13.107Z,102106.16
2024-05-09T19:18:43.549Z,102108.78
2024-05-09T19:21:11.746Z,102106.03
2024-05-09T19:23:47.216Z,102105.19
2024-05-09T19:26:22.401Z,102112.63
2024-05-09T19:28:53.052Z,102108.19
2024-05-09T19:31:20.749Z,102114.28
2024-05-09T19:33:51.862Z,102093.13
2024-05-09T19:36:19.736Z,102081.66
2024-05-09T19:38:51.654Z,102117.38
2024-05-09T19:41:22.794Z,102100.41
2024-05-09T19:43:52.997Z,102113.53
2024-05-09T19:46:20.883Z,102096.66
2024-05-09T19:48:51.470Z,102082.66
2024-05-09T19:51:19.439Z,102126.97
2024-05-09T19:53:50.712Z,102097.81
2024-05-09T19:56:18.283Z,102127.09
2024-05-09T19:58:51.039Z,102108.91
2024-05-09T20:01:18.840Z,102106.84
2024-05-09T20:03:49.446Z,102109.88
2024-05-09T20:06:17.352Z,102101.72
2024-05-09T20:08:47.477Z,102117.22
2024-05-09T20:11:15.452Z,102110.63
2024-05-09T20:13:45.552Z,102098.31
2024-05-09T20:16:15.877Z,102103.47
2024-05-09T20:18:46.152Z,102109.06
2024-05-09T20:21:13.984Z,102100.69
2024-05-09T20:23:46.958Z,102100.69
2024-05-09T20:26:14.678Z,102088.59
2024-05-09T20:28:46.270Z,102095.63
2024-05-09T20:31:20.605Z,102100.03
2024-05-09T20:33:51.057Z,102080.56
2024-05-09T20:36:18.759Z,102098.19
2024-05-09T20:38:48.962Z,102045.72
2024-05-09T20:41:16.908Z,102046.66
2024-05-09T20:43:47.132Z,102029.00
2024-05-09T20:46:17.878Z,102018.97
2024-05-09T20:48:48.389Z,102036.66
2024-05-09T20:51:16.020Z,102026.22
2024-05-09T20:53:46.061Z,102028.94
2024-05-09T20:56:13.990Z,102024.63
2024-05-09T20:58:44.358Z,102013.84
2024-05-09T21:01:12.112Z,101980.16
2024-05-09T21:03:47.524Z,102028.56
2024-05-09T21:06:15.307Z,102016.47
2024-05-09T21:08:45.502Z,102015.22
2024-05-09T21:11:13.252Z,102026.31
2024-05-09T21:13:43.490Z,102024.97
2024-05-09T21:16:11.322Z,102010.75
2024-05-09T21:18:41.716Z,102026.22
2024-05-09T21:21:11.942Z,102009.91
2024-05-09T21:23:42.138Z,102023.22
2024-05-09T21:26:09.928Z,102025.22
2024-05-09T21:28:42.855Z,102013.41
2024-05-09T21:31:10.681Z,101995.22
2024-05-09T21:33:41.052Z,101992.69
2024-05-09T21:36:14.709Z,102006.38
2024-05-09T21:38:43.123Z,102012.56
2024-05-09T21:41:13.427Z,101997.50
2024-05-09T21:43:41.010Z,101969.38
2024-05-09T21:46:11.275Z,101977.53
2024-05-09T21:48:39.403Z,101991.31
2024-05-09T21:51:18.530Z,101986.63
2024-05-09T21:53:46.196Z,102003.34
2024-05-09T21:56:16.374Z,102005.53
2024-05-09T21:58:44.159Z,101999.22
2024-05-09T22:01:17.326Z,101993.41
2024-05-09T22:03:45.196Z,101982.31
2024-05-09T22:06:17.962Z,101985.25
2024-05-09T22:08:45.646Z,101985.28
2024-05-09T22:11:16.039Z,101992.25
2024-05-09T22:13:43.794Z,101979.16
2024-05-09T22:16:14.071Z,101973.25
2024-05-09T22:18:42.060Z,101955.34
2024-05-09T22:21:12.333Z,101977.25
2024-05-09T22:23:42.528Z,101968.53
2024-05-09T22:26:12.891Z,101981.22
2024-05-09T22:28:40.922Z,101938.50
2024-05-09T22:31:11.726Z,101932.06
2024-05-09T22:33:39.588Z,101924.22
2024-05-09T22:36:11.328Z,101971.44
2024-05-09T22:38:41.667Z,101967.78
2024-05-09T22:41:12.281Z,101951.66
2024-05-09T22:43:40.051Z,101967.19
2024-05-09T22:46:10.296Z,101969.25
2024-05-09T22:48:38.448Z,101969.47
2024-05-09T22:51:09.146Z,101956.47
2024-05-09T22:53:36.784Z,101962.66
2024-05-09T22:56:09.968Z,101955.41
2024-05-09T22:58:37.817Z,101957.94
2024-05-09T23:01:08.239Z,101957.34
2024-05-09T23:03:39.371Z,101950.06
2024-05-09T23:06:10.023Z,101947.91
2024-05-09T23:08:37.667Z,101954.34
2024-05-09T23:11:10.644Z,101948.16
2024-05-09T23:13:38.259Z,101933.88
2024-05-09T23:16:09.328Z,101937.31
2024-05-09T23:18:37.201Z,101938.72
2024-05-09T23:21:07.984Z,101900.44
2024-05-09T23:23:35.618Z,101922.59
2024-05-09T23:26:05.749Z,101914.28
2024-05-09T23:28:36.075Z,101914.84
2024-05-09T23:31:07.598Z,101900.56
2024-05-09T23:33:35.629Z,101907.81
2024-05-09T23:36:06.009Z,101906.84
2024-05-09T23:38:33.636Z,101894.34
2024-05-09T23:41:03.932Z,101902.31
2024-05-09T23:43:31.771Z,101887.66
2024-05-09T23:46:07.522Z,101907.69
2024-05-09T23:48:35.321Z,101873.44
2024-05-09T23:51:05.729Z,101902.38
2024-05-09T23:53:33.366Z,101886.38
2024-05-09T23:56:03.483Z,101876.50
2024-05-09T23:58:31.561Z,101895.06
